sensor_id;sensor_type;location;lat;lon;timestamp;temperature;humidity
35206;DHT22;46555;45.620;13.796;2022-07-22T00:01:16;26.30;84.00
35206;DHT22;46555;45.620;13.796;2022-07-22T00:03:41;26.30;82.90
35206;DHT22;46555;45.620;13.796;2022-07-22T00:06:07;26.30;81.80
35206;DHT22;46555;45.620;13.796;2022-07-22T00:08:33;26.20;82.20
35206;DHT22;46555;45.620;13.796;2022-07-22T00:11:02;26.30;83.60
35206;DHT22;46555;45.620;13.796;2022-07-22T00:13:28;26.30;85.20
35206;DHT22;46555;45.620;13.796;2022-07-22T00:15:53;26.30;87.50
35206;DHT22;46555;45.620;13.796;2022-07-22T00:18:19;26.30;88.40
35206;DHT22;46555;45.620;13.796;2022-07-22T00:20:45;26.30;87.90
35206;DHT22;46555;45.620;13.796;2022-07-22T00:23:10;26.30;86.10
35206;DHT22;46555;45.620;13.796;2022-07-22T00:25:36;26.30;86.70
35206;DHT22;46555;45.620;13.796;2022-07-22T00:28:02;26.20;87.80
35206;DHT22;46555;45.620;13.796;2022-07-22T00:30:28;26.20;89.80
35206;DHT22;46555;45.620;13.796;2022-07-22T00:32:54;26.30;90.40
35206;DHT22;46555;45.620;13.796;2022-07-22T00:35:19;26.20;91.60
35206;DHT22;46555;45.620;13.796;2022-07-22T00:37:45;26.30;93.30
35206;DHT22;46555;45.620;13.796;2022-07-22T00:40:11;26.20;94.60
35206;DHT22;46555;45.620;13.796;2022-07-22T00:42:37;26.20;95.10
35206;DHT22;46555;45.620;13.796;2022-07-22T00:45:03;26.10;95.00
35206;DHT22;46555;45.620;13.796;2022-07-22T00:47:29;26.10;95.40
35206;DHT22;46555;45.620;13.796;2022-07-22T00:49:54;26.00;95.70
35206;DHT22;46555;45.620;13.796;2022-07-22T00:52:21;25.80;94.70
35206;DHT22;46555;45.620;13.796;2022-07-22T00:54:47;25.70;93.30
35206;DHT22;46555;45.620;13.796;2022-07-22T00:57:13;25.60;93.80
35206;DHT22;46555;45.620;13.796;2022-07-22T00:59:39;25.50;93.60
35206;DHT22;46555;45.620;13.796;2022-07-22T01:02:05;25.40;94.70
35206;DHT22;46555;45.620;13.796;2022-07-22T01:04:30;25.40;93.70
35206;DHT22;46555;45.620;13.796;2022-07-22T01:06:56;25.40;93.20
35206;DHT22;46555;45.620;13.796;2022-07-22T01:09:22;25.30;92.70
35206;DHT22;46555;45.620;13.796;2022-07-22T01:11:48;25.30;91.20
35206;DHT22;46555;45.620;13.796;2022-07-22T01:14:14;25.20;90.90
35206;DHT22;46555;45.620;13.796;2022-07-22T01:16:39;25.10;90.40
35206;DHT22;46555;45.620;13.796;2022-07-22T01:19:05;25.10;90.70
35206;DHT22;46555;45.620;13.796;2022-07-22T01:21:32;25.10;90.80
35206;DHT22;46555;45.620;13.796;2022-07-22T01:23:58;25.00;91.60
35206;DHT22;46555;45.620;13.796;2022-07-22T01:26:24;25.00;92.00
35206;DHT22;46555;45.620;13.796;2022-07-22T01:28:50;25.00;92.50
35206;DHT22;46555;45.620;13.796;2022-07-22T01:31:15;25.00;92.60
35206;DHT22;46555;45.620;13.796;2022-07-22T01:33:41;25.00;92.10
35206;DHT22;46555;45.620;13.796;2022-07-22T01:36:08;24.90;91.80
35206;DHT22;46555;45.620;13.796;2022-07-22T01:38:34;24.90;90.80
35206;DHT22;46555;45.620;13.796;2022-07-22T01:41:00;24.90;90.40
35206;DHT22;46555;45.620;13.796;2022-07-22T01:43:26;24.80;89.80
35206;DHT22;46555;45.620;13.796;2022-07-22T01:45:53;24.80;89.10
35206;DHT22;46555;45.620;13.796;2022-07-22T01:48:20;24.70;88.90
35206;DHT22;46555;45.620;13.796;2022-07-22T01:50:45;24.70;88.20
35206;DHT22;46555;45.620;13.796;2022-07-22T01:53:11;24.70;87.90
35206;DHT22;46555;45.620;13.796;2022-07-22T01:55:38;24.70;88.30
35206;DHT22;46555;45.620;13.796;2022-07-22T01:58:04;24.70;87.70
35206;DHT22;46555;45.620;13.796;2022-07-22T02:00:31;24.70;87.20
35206;DHT22;46555;45.620;13.796;2022-07-22T02:02:57;24.70;87.20
35206;DHT22;46555;45.620;13.796;2022-07-22T02:05:23;24.70;87.00
35206;DHT22;46555;45.620;13.796;2022-07-22T02:07:49;24.60;86.80
35206;DHT22;46555;45.620;13.796;2022-07-22T02:10:15;24.60;86.80
35206;DHT22;46555;45.620;13.796;2022-07-22T02:12:41;24.60;86.50
35206;DHT22;46555;45.620;13.796;2022-07-22T02:15:07;24.60;87.00
35206;DHT22;46555;45.620;13.796;2022-07-22T02:17:34;24.60;87.30
35206;DHT22;46555;45.620;13.796;2022-07-22T02:20:01;24.60;87.90
35206;DHT22;46555;45.620;13.796;2022-07-22T02:22:27;24.50;87.30
35206;DHT22;46555;45.620;13.796;2022-07-22T02:24:53;24.50;87.40
35206;DHT22;46555;45.620;13.796;2022-07-22T02:27:19;24.50;87.80
35206;DHT22;46555;45.620;13.796;2022-07-22T02:29:45;24.50;87.80
35206;DHT22;46555;45.620;13.796;2022-07-22T02:32:10;24.50;88.00
35206;DHT22;46555;45.620;13.796;2022-07-22T02:34:36;24.40;88.80
35206;DHT22;46555;45.620;13.796;2022-07-22T02:37:02;24.40;89.70
35206;DHT22;46555;45.620;13.796;2022-07-22T02:39:27;24.40;89.60
35206;DHT22;46555;45.620;13.796;2022-07-22T02:41:53;24.30;89.70
35206;DHT22;46555;45.620;13.796;2022-07-22T02:44:19;24.30;89.40
35206;DHT22;46555;45.620;13.796;2022-07-22T02:46:45;24.30;89.50
35206;DHT22;46555;45.620;13.796;2022-07-22T02:49:11;24.40;87.90
35206;DHT22;46555;45.620;13.796;2022-07-22T02:51:40;24.40;88.50
35206;DHT22;46555;45.620;13.796;2022-07-22T02:54:05;24.40;88.20
35206;DHT22;46555;45.620;13.796;2022-07-22T02:56:31;24.50;88.40
35206;DHT22;46555;45.620;13.796;2022-07-22T02:58:57;24.50;88.30
35206;DHT22;46555;45.620;13.796;2022-07-22T03:01:23;24.50;87.50
35206;DHT22;46555;45.620;13.796;2022-07-22T03:03:48;24.50;87.30
35206;DHT22;46555;45.620;13.796;2022-07-22T03:06:14;24.60;87.00
35206;DHT22;46555;45.620;13.796;2022-07-22T03:08:40;24.60;86.20
35206;DHT22;46555;45.620;13.796;2022-07-22T03:11:06;24.60;85.60
35206;DHT22;46555;45.620;13.796;2022-07-22T03:13:32;24.70;84.90
35206;DHT22;46555;45.620;13.796;2022-07-22T03:15:57;24.70;84.70
35206;DHT22;46555;45.620;13.796;2022-07-22T03:18:26;24.80;84.60
35206;DHT22;46555;45.620;13.796;2022-07-22T03:20:51;24.80;84.90
35206;DHT22;46555;45.620;13.796;2022-07-22T03:23:17;24.80;84.60
35206;DHT22;46555;45.620;13.796;2022-07-22T03:25:43;24.90;84.40
35206;DHT22;46555;45.620;13.796;2022-07-22T03:28:09;24.90;84.30
35206;DHT22;46555;45.620;13.796;2022-07-22T03:30:34;24.80;84.40
35206;DHT22;46555;45.620;13.796;2022-07-22T03:33:00;24.80;85.20
35206;DHT22;46555;45.620;13.796;2022-07-22T03:35:26;24.70;85.20
35206;DHT22;46555;45.620;13.796;2022-07-22T03:37:52;24.80;84.90
35206;DHT22;46555;45.620;13.796;2022-07-22T03:40:19;24.80;86.90
35206;DHT22;46555;45.620;13.796;2022-07-22T03:42:45;24.80;85.90
35206;DHT22;46555;45.620;13.796;2022-07-22T03:45:10;24.80;86.40
35206;DHT22;46555;45.620;13.796;2022-07-22T03:47:36;25.00;87.20
35206;DHT22;46555;45.620;13.796;2022-07-22T03:50:02;25.00;86.10
35206;DHT22;46555;45.620;13.796;2022-07-22T03:52:32;25.00;84.90
35206;DHT22;46555;45.620;13.796;2022-07-22T03:54:57;25.10;84.90
35206;DHT22;46555;45.620;13.796;2022-07-22T03:57:23;25.00;84.30
35206;DHT22;46555;45.620;13.796;2022-07-22T03:59:49;25.10;85.20
35206;DHT22;46555;45.620;13.796;2022-07-22T04:02:15;25.10;85.20
35206;DHT22;46555;45.620;13.796;2022-07-22T04:04:40;25.10;85.10
35206;DHT22;46555;45.620;13.796;2022-07-22T04:07:06;25.20;83.00
35206;DHT22;46555;45.620;13.796;2022-07-22T04:09:32;25.40;81.90
35206;DHT22;46555;45.620;13.796;2022-07-22T04:11:58;25.40;81.90
35206;DHT22;46555;45.620;13.796;2022-07-22T04:14:24;25.50;81.90
35206;DHT22;46555;45.620;13.796;2022-07-22T04:16:49;25.50;81.60
35206;DHT22;46555;45.620;13.796;2022-07-22T04:19:15;25.50;81.70
35206;DHT22;46555;45.620;13.796;2022-07-22T04:21:41;25.60;80.40
35206;DHT22;46555;45.620;13.796;2022-07-22T04:24:07;25.70;80.10
35206;DHT22;46555;45.620;13.796;2022-07-22T04:26:33;25.80;81.10
35206;DHT22;46555;45.620;13.796;2022-07-22T04:28:59;25.80;80.10
35206;DHT22;46555;45.620;13.796;2022-07-22T04:31:25;25.90;80.40
35206;DHT22;46555;45.620;13.796;2022-07-22T04:33:50;25.90;79.40
35206;DHT22;46555;45.620;13.796;2022-07-22T04:36:16;25.90;80.70
35206;DHT22;46555;45.620;13.796;2022-07-22T04:38:42;25.90;81.60
35206;DHT22;46555;45.620;13.796;2022-07-22T04:41:07;26.00;81.10
35206;DHT22;46555;45.620;13.796;2022-07-22T04:43:33;26.00;80.10
35206;DHT22;46555;45.620;13.796;2022-07-22T04:45:59;26.10;79.10
35206;DHT22;46555;45.620;13.796;2022-07-22T04:48:25;26.10;79.50
35206;DHT22;46555;45.620;13.796;2022-07-22T04:50:51;26.30;78.60
35206;DHT22;46555;45.620;13.796;2022-07-22T04:53:16;26.30;78.50
35206;DHT22;46555;45.620;13.796;2022-07-22T04:55:45;26.40;77.30
35206;DHT22;46555;45.620;13.796;2022-07-22T04:58:10;26.50;77.50
35206;DHT22;46555;45.620;13.796;2022-07-22T05:00:36;26.60;77.30
35206;DHT22;46555;45.620;13.796;2022-07-22T05:03:02;26.60;75.40
35206;DHT22;46555;45.620;13.796;2022-07-22T05:05:28;26.80;76.70
35206;DHT22;46555;45.620;13.796;2022-07-22T05:07:53;26.80;81.70
35206;DHT22;46555;45.620;13.796;2022-07-22T05:10:19;26.80;78.60
35206;DHT22;46555;45.620;13.796;2022-07-22T05:12:45;26.90;78.70
35206;DHT22;46555;45.620;13.796;2022-07-22T05:15:10;26.90;77.60
35206;DHT22;46555;45.620;13.796;2022-07-22T05:17:36;26.90;77.90
35206;DHT22;46555;45.620;13.796;2022-07-22T05:20:03;27.00;80.60
35206;DHT22;46555;45.620;13.796;2022-07-22T05:22:29;27.00;82.50
35206;DHT22;46555;45.620;13.796;2022-07-22T05:24:55;27.00;77.70
35206;DHT22;46555;45.620;13.796;2022-07-22T05:27:21;27.00;76.30
35206;DHT22;46555;45.620;13.796;2022-07-22T05:29:46;27.10;77.80
35206;DHT22;46555;45.620;13.796;2022-07-22T05:32:13;27.20;74.40
35206;DHT22;46555;45.620;13.796;2022-07-22T05:34:39;27.30;76.10
35206;DHT22;46555;45.620;13.796;2022-07-22T05:37:04;27.40;75.70
35206;DHT22;46555;45.620;13.796;2022-07-22T05:39:30;27.50;74.50
35206;DHT22;46555;45.620;13.796;2022-07-22T05:41:56;27.50;73.40
35206;DHT22;46555;45.620;13.796;2022-07-22T05:44:21;27.60;72.70
35206;DHT22;46555;45.620;13.796;2022-07-22T05:46:47;27.60;72.70
35206;DHT22;46555;45.620;13.796;2022-07-22T05:49:12;27.70;75.70
35206;DHT22;46555;45.620;13.796;2022-07-22T05:51:38;27.80;76.80
35206;DHT22;46555;45.620;13.796;2022-07-22T05:54:04;27.90;74.30
35206;DHT22;46555;45.620;13.796;2022-07-22T05:56:29;27.90;74.70
35206;DHT22;46555;45.620;13.796;2022-07-22T05:58:55;27.90;74.00
35206;DHT22;46555;45.620;13.796;2022-07-22T06:01:22;28.00;72.80
35206;DHT22;46555;45.620;13.796;2022-07-22T06:03:48;28.10;72.80
35206;DHT22;46555;45.620;13.796;2022-07-22T06:06:14;28.30;74.50
35206;DHT22;46555;45.620;13.796;2022-07-22T06:08:40;28.50;71.10
35206;DHT22;46555;45.620;13.796;2022-07-22T06:11:05;28.60;70.40
35206;DHT22;46555;45.620;13.796;2022-07-22T06:13:32;28.60;71.10
35206;DHT22;46555;45.620;13.796;2022-07-22T06:15:59;28.60;70.20
35206;DHT22;46555;45.620;13.796;2022-07-22T06:18:28;28.70;71.40
35206;DHT22;46555;45.620;13.796;2022-07-22T06:20:53;28.80;72.00
35206;DHT22;46555;45.620;13.796;2022-07-22T06:23:19;28.80;72.30
35206;DHT22;46555;45.620;13.796;2022-07-22T06:25:45;28.90;68.90
35206;DHT22;46555;45.620;13.796;2022-07-22T06:28:11;29.00;67.70
35206;DHT22;46555;45.620;13.796;2022-07-22T06:30:37;29.10;67.50
35206;DHT22;46555;45.620;13.796;2022-07-22T06:33:04;29.20;66.70
35206;DHT22;46555;45.620;13.796;2022-07-22T06:35:30;29.30;66.70
35206;DHT22;46555;45.620;13.796;2022-07-22T06:37:55;29.40;66.60
35206;DHT22;46555;45.620;13.796;2022-07-22T06:40:24;29.50;66.20
35206;DHT22;46555;45.620;13.796;2022-07-22T06:42:50;29.60;66.10
35206;DHT22;46555;45.620;13.796;2022-07-22T06:45:17;29.70;65.80
35206;DHT22;46555;45.620;13.796;2022-07-22T06:47:42;29.80;66.10
35206;DHT22;46555;45.620;13.796;2022-07-22T06:50:08;29.80;65.40
35206;DHT22;46555;45.620;13.796;2022-07-22T06:52:38;30.00;65.50
35206;DHT22;46555;45.620;13.796;2022-07-22T06:55:05;30.10;65.90
35206;DHT22;46555;45.620;13.796;2022-07-22T06:57:31;30.20;65.20
35206;DHT22;46555;45.620;13.796;2022-07-22T06:59:56;30.20;64.90
35206;DHT22;46555;45.620;13.796;2022-07-22T07:02:22;30.30;64.80
35206;DHT22;46555;45.620;13.796;2022-07-22T07:04:48;30.30;64.50
35206;DHT22;46555;45.620;13.796;2022-07-22T07:07:13;30.40;64.50
35206;DHT22;46555;45.620;13.796;2022-07-22T07:09:39;30.40;63.70
35206;DHT22;46555;45.620;13.796;2022-07-22T07:12:05;30.50;64.00
35206;DHT22;46555;45.620;13.796;2022-07-22T07:14:31;30.60;63.50
35206;DHT22;46555;45.620;13.796;2022-07-22T07:16:57;30.70;63.20
35206;DHT22;46555;45.620;13.796;2022-07-22T07:19:23;30.70;63.30
35206;DHT22;46555;45.620;13.796;2022-07-22T07:21:48;30.80;63.10
35206;DHT22;46555;45.620;13.796;2022-07-22T07:24:17;30.90;62.50
35206;DHT22;46555;45.620;13.796;2022-07-22T07:26:42;31.00;62.00
35206;DHT22;46555;45.620;13.796;2022-07-22T07:29:08;31.10;60.70
35206;DHT22;46555;45.620;13.796;2022-07-22T07:31:34;31.10;61.40
35206;DHT22;46555;45.620;13.796;2022-07-22T07:34:00;31.20;61.30
35206;DHT22;46555;45.620;13.796;2022-07-22T07:36:25;31.30;61.10
35206;DHT22;46555;45.620;13.796;2022-07-22T07:38:51;31.40;61.20
35206;DHT22;46555;45.620;13.796;2022-07-22T07:41:17;31.40;60.40
35206;DHT22;46555;45.620;13.796;2022-07-22T07:43:43;31.50;60.00
35206;DHT22;46555;45.620;13.796;2022-07-22T07:46:09;31.60;59.90
35206;DHT22;46555;45.620;13.796;2022-07-22T07:48:35;31.70;60.00
35206;DHT22;46555;45.620;13.796;2022-07-22T07:51:01;31.80;60.10
35206;DHT22;46555;45.620;13.796;2022-07-22T07:53:26;31.80;59.90
35206;DHT22;46555;45.620;13.796;2022-07-22T07:55:52;31.90;60.10
35206;DHT22;46555;45.620;13.796;2022-07-22T07:58:18;32.00;59.30
35206;DHT22;46555;45.620;13.796;2022-07-22T08:00:46;32.10;59.40
35206;DHT22;46555;45.620;13.796;2022-07-22T08:03:12;32.10;59.40
35206;DHT22;46555;45.620;13.796;2022-07-22T08:05:38;32.10;58.90
35206;DHT22;46555;45.620;13.796;2022-07-22T08:08:05;32.20;59.20
35206;DHT22;46555;45.620;13.796;2022-07-22T08:10:31;32.40;59.30
35206;DHT22;46555;45.620;13.796;2022-07-22T08:12:57;32.50;58.90
35206;DHT22;46555;45.620;13.796;2022-07-22T08:15:24;32.60;58.10
35206;DHT22;46555;45.620;13.796;2022-07-22T08:17:51;32.40;77.10
35206;DHT22;46555;45.620;13.796;2022-07-22T08:20:17;32.30;72.60
35206;DHT22;46555;45.620;13.796;2022-07-22T08:22:44;32.30;71.10
35206;DHT22;46555;45.620;13.796;2022-07-22T08:25:09;32.20;79.60
35206;DHT22;46555;45.620;13.796;2022-07-22T08:27:35;32.10;83.60
35206;DHT22;46555;45.620;13.796;2022-07-22T08:30:01;31.90;87.10
35206;DHT22;46555;45.620;13.796;2022-07-22T08:32:30;31.70;89.70
35206;DHT22;46555;45.620;13.796;2022-07-22T08:34:56;31.40;91.10
35206;DHT22;46555;45.620;13.796;2022-07-22T08:37:21;31.20;91.50
35206;DHT22;46555;45.620;13.796;2022-07-22T08:39:47;31.00;92.50
35206;DHT22;46555;45.620;13.796;2022-07-22T08:42:13;30.80;93.90
35206;DHT22;46555;45.620;13.796;2022-07-22T08:44:39;30.60;96.50
35206;DHT22;46555;45.620;13.796;2022-07-22T08:47:05;30.50;98.70
35206;DHT22;46555;45.620;13.796;2022-07-22T08:49:31;30.50;99.90
35206;DHT22;46555;45.620;13.796;2022-07-22T08:51:57;30.40;99.90
35206;DHT22;46555;45.620;13.796;2022-07-22T08:54:22;30.30;99.40
35206;DHT22;46555;45.620;13.796;2022-07-22T08:56:54;30.30;97.80
35206;DHT22;46555;45.620;13.796;2022-07-22T08:59:20;30.30;97.70
35206;DHT22;46555;45.620;13.796;2022-07-22T09:02:08;30.30;96.50
35206;DHT22;46555;45.620;13.796;2022-07-22T09:05:02;30.40;96.10
35206;DHT22;46555;45.620;13.796;2022-07-22T09:07:31;30.50;95.70
35206;DHT22;46555;45.620;13.796;2022-07-22T09:09:58;30.60;94.70
35206;DHT22;46555;45.620;13.796;2022-07-22T09:12:25;30.70;94.30
35206;DHT22;46555;45.620;13.796;2022-07-22T09:14:54;30.80;93.90
35206;DHT22;46555;45.620;13.796;2022-07-22T09:17:30;30.80;93.90
35206;DHT22;46555;45.620;13.796;2022-07-22T09:19:59;30.90;92.90
35206;DHT22;46555;45.620;13.796;2022-07-22T09:25:30;31.10;93.20
35206;DHT22;46555;45.620;13.796;2022-07-22T09:28:20;31.20;93.50
35206;DHT22;46555;45.620;13.796;2022-07-22T09:30:53;31.20;93.20
35206;DHT22;46555;45.620;13.796;2022-07-22T09:33:20;31.20;92.10
35206;DHT22;46555;45.620;13.796;2022-07-22T09:35:47;31.00;92.40
35206;DHT22;46555;45.620;13.796;2022-07-22T09:38:13;31.00;90.00
35206;DHT22;46555;45.620;13.796;2022-07-22T09:40:45;30.90;86.70
35206;DHT22;46555;45.620;13.796;2022-07-22T09:43:16;30.90;86.50
35206;DHT22;46555;45.620;13.796;2022-07-22T09:45:56;31.00;83.60
35206;DHT22;46555;45.620;13.796;2022-07-22T09:48:23;31.00;82.10
35206;DHT22;46555;45.620;13.796;2022-07-22T09:50:50;31.10;79.40
35206;DHT22;46555;45.620;13.796;2022-07-22T09:53:18;31.30;78.80
35206;DHT22;46555;45.620;13.796;2022-07-22T09:55:44;31.40;84.30
35206;DHT22;46555;45.620;13.796;2022-07-22T09:58:09;31.20;90.50
35206;DHT22;46555;45.620;13.796;2022-07-22T10:00:38;31.10;93.60
35206;DHT22;46555;45.620;13.796;2022-07-22T10:03:12;31.10;99.90
35206;DHT22;46555;45.620;13.796;2022-07-22T10:05:42;30.80;99.90
35206;DHT22;46555;45.620;13.796;2022-07-22T10:08:10;30.80;98.50
35206;DHT22;46555;45.620;13.796;2022-07-22T10:10:38;31.00;91.60
35206;DHT22;46555;45.620;13.796;2022-07-22T10:13:06;31.20;88.70
35206;DHT22;46555;45.620;13.796;2022-07-22T10:15:33;31.40;85.30
35206;DHT22;46555;45.620;13.796;2022-07-22T10:18:08;31.60;84.50
35206;DHT22;46555;45.620;13.796;2022-07-22T10:20:35;31.70;80.30
35206;DHT22;46555;45.620;13.796;2022-07-22T10:23:03;31.80;79.50
35206;DHT22;46555;45.620;13.796;2022-07-22T10:25:47;31.90;76.20
35206;DHT22;46555;45.620;13.796;2022-07-22T10:28:31;32.10;76.10
35206;DHT22;46555;45.620;13.796;2022-07-22T10:33:41;32.40;75.70
35206;DHT22;46555;45.620;13.796;2022-07-22T10:36:08;32.50;73.60
35206;DHT22;46555;45.620;13.796;2022-07-22T10:38:35;32.60;71.10
35206;DHT22;46555;45.620;13.796;2022-07-22T10:41:05;32.70;70.20
35206;DHT22;46555;45.620;13.796;2022-07-22T10:46:08;32.80;69.90
35206;DHT22;46555;45.620;13.796;2022-07-22T10:51:17;32.90;70.50
35206;DHT22;46555;45.620;13.796;2022-07-22T10:56:28;32.90;69.80
35206;DHT22;46555;45.620;13.796;2022-07-22T11:01:43;33.10;70.70
35206;DHT22;46555;45.620;13.796;2022-07-22T11:04:21;33.30;68.20
35206;DHT22;46555;45.620;13.796;2022-07-22T11:06:52;33.20;67.30
35206;DHT22;46555;45.620;13.796;2022-07-22T11:09:29;33.20;67.40
35206;DHT22;46555;45.620;13.796;2022-07-22T11:11:56;33.30;67.40
35206;DHT22;46555;45.620;13.796;2022-07-22T11:14:31;33.30;67.50
35206;DHT22;46555;45.620;13.796;2022-07-22T11:17:10;33.20;67.50
35206;DHT22;46555;45.620;13.796;2022-07-22T11:19:37;33.10;68.00
35206;DHT22;46555;45.620;13.796;2022-07-22T11:22:06;33.10;73.10
35206;DHT22;46555;45.620;13.796;2022-07-22T11:24:34;32.90;76.80
35206;DHT22;46555;45.620;13.796;2022-07-22T11:27:00;32.80;74.70
35206;DHT22;46555;45.620;13.796;2022-07-22T11:29:34;32.80;76.10
35206;DHT22;46555;45.620;13.796;2022-07-22T11:32:03;32.60;74.50
35206;DHT22;46555;45.620;13.796;2022-07-22T11:34:32;32.70;76.60
35206;DHT22;46555;45.620;13.796;2022-07-22T11:36:58;32.60;74.80
35206;DHT22;46555;45.620;13.796;2022-07-22T11:39:26;32.60;77.20
35206;DHT22;46555;45.620;13.796;2022-07-22T11:41:57;32.40;77.00
35206;DHT22;46555;45.620;13.796;2022-07-22T11:44:27;32.30;78.30
35206;DHT22;46555;45.620;13.796;2022-07-22T11:46:53;32.40;77.70
35206;DHT22;46555;45.620;13.796;2022-07-22T11:49:24;32.50;75.20
35206;DHT22;46555;45.620;13.796;2022-07-22T11:51:51;32.60;73.00
35206;DHT22;46555;45.620;13.796;2022-07-22T11:54:17;32.60;75.00
35206;DHT22;46555;45.620;13.796;2022-07-22T11:56:43;32.80;71.00
35206;DHT22;46555;45.620;13.796;2022-07-22T11:59:13;33.10;69.80
35206;DHT22;46555;45.620;13.796;2022-07-22T12:01:39;33.10;69.40
35206;DHT22;46555;45.620;13.796;2022-07-22T12:04:08;33.20;65.80
35206;DHT22;46555;45.620;13.796;2022-07-22T12:06:36;33.20;66.90
35206;DHT22;46555;45.620;13.796;2022-07-22T12:09:15;33.20;65.90
35206;DHT22;46555;45.620;13.796;2022-07-22T12:11:44;33.80;64.10
35206;DHT22;46555;45.620;13.796;2022-07-22T12:14:12;34.80;62.90
35206;DHT22;46555;45.620;13.796;2022-07-22T12:16:40;35.90;60.60
35206;DHT22;46555;45.620;13.796;2022-07-22T12:19:08;37.00;60.10
35206;DHT22;46555;45.620;13.796;2022-07-22T12:24:41;38.70;57.20
35206;DHT22;46555;45.620;13.796;2022-07-22T12:32:06;40.70;55.60
35206;DHT22;46555;45.620;13.796;2022-07-22T12:34:46;40.90;54.70
35206;DHT22;46555;45.620;13.796;2022-07-22T12:42:21;42.10;52.40
35206;DHT22;46555;45.620;13.796;2022-07-22T12:45:05;42.30;52.50
35206;DHT22;46555;45.620;13.796;2022-07-22T12:47:48;42.50;51.50
35206;DHT22;46555;45.620;13.796;2022-07-22T12:50:38;41.70;51.00
35206;DHT22;46555;45.620;13.796;2022-07-22T12:53:10;42.00;51.30
35206;DHT22;46555;45.620;13.796;2022-07-22T12:55:36;42.00;50.70
35206;DHT22;46555;45.620;13.796;2022-07-22T12:58:06;42.40;50.50
35206;DHT22;46555;45.620;13.796;2022-07-22T13:00:41;42.50;49.60
35206;DHT22;46555;45.620;13.796;2022-07-22T13:03:07;42.60;49.90
35206;DHT22;46555;45.620;13.796;2022-07-22T13:05:33;42.50;49.50
35206;DHT22;46555;45.620;13.796;2022-07-22T13:08:00;41.80;50.20
35206;DHT22;46555;45.620;13.796;2022-07-22T13:10:26;42.20;49.90
35206;DHT22;46555;45.620;13.796;2022-07-22T13:12:52;41.80;50.50
35206;DHT22;46555;45.620;13.796;2022-07-22T13:15:19;41.90;50.30
35206;DHT22;46555;45.620;13.796;2022-07-22T13:17:45;41.80;51.10
35206;DHT22;46555;45.620;13.796;2022-07-22T13:20:12;41.80;50.60
35206;DHT22;46555;45.620;13.796;2022-07-22T13:22:42;41.70;50.10
35206;DHT22;46555;45.620;13.796;2022-07-22T13:25:09;42.00;50.30
35206;DHT22;46555;45.620;13.796;2022-07-22T13:27:37;42.20;49.30
35206;DHT22;46555;45.620;13.796;2022-07-22T13:30:04;42.10;49.10
35206;DHT22;46555;45.620;13.796;2022-07-22T13:32:30;42.30;49.00
35206;DHT22;46555;45.620;13.796;2022-07-22T13:34:55;42.60;49.00
35206;DHT22;46555;45.620;13.796;2022-07-22T13:37:21;42.70;48.50
35206;DHT22;46555;45.620;13.796;2022-07-22T13:39:47;42.60;48.70
35206;DHT22;46555;45.620;13.796;2022-07-22T13:42:17;43.00;48.80
35206;DHT22;46555;45.620;13.796;2022-07-22T13:44:46;43.30;48.00
35206;DHT22;46555;45.620;13.796;2022-07-22T13:47:12;43.40;47.90
35206;DHT22;46555;45.620;13.796;2022-07-22T13:49:38;43.00;48.30
35206;DHT22;46555;45.620;13.796;2022-07-22T13:52:04;43.30;47.90
35206;DHT22;46555;45.620;13.796;2022-07-22T13:54:31;43.30;47.40
35206;DHT22;46555;45.620;13.796;2022-07-22T13:56:57;43.70;46.30
35206;DHT22;46555;45.620;13.796;2022-07-22T13:59:24;44.00;47.20
35206;DHT22;46555;45.620;13.796;2022-07-22T14:01:50;44.10;45.60
35206;DHT22;46555;45.620;13.796;2022-07-22T14:04:16;44.10;45.80
35206;DHT22;46555;45.620;13.796;2022-07-22T14:06:41;44.10;45.70
35206;DHT22;46555;45.620;13.796;2022-07-22T14:09:07;44.10;45.70
35206;DHT22;46555;45.620;13.796;2022-07-22T14:11:35;43.50;45.50
35206;DHT22;46555;45.620;13.796;2022-07-22T14:14:01;43.00;46.10
35206;DHT22;46555;45.620;13.796;2022-07-22T14:16:27;42.70;47.60
35206;DHT22;46555;45.620;13.796;2022-07-22T14:19:06;42.20;48.70
35206;DHT22;46555;45.620;13.796;2022-07-22T14:21:33;42.20;49.60
35206;DHT22;46555;45.620;13.796;2022-07-22T14:24:00;42.30;49.30
35206;DHT22;46555;45.620;13.796;2022-07-22T14:26:26;41.90;48.60
35206;DHT22;46555;45.620;13.796;2022-07-22T14:28:52;41.90;49.40
35206;DHT22;46555;45.620;13.796;2022-07-22T14:31:18;41.70;48.50
35206;DHT22;46555;45.620;13.796;2022-07-22T14:33:45;41.80;48.60
35206;DHT22;46555;45.620;13.796;2022-07-22T14:36:11;41.80;47.00
35206;DHT22;46555;45.620;13.796;2022-07-22T14:38:37;41.90;47.20
35206;DHT22;46555;45.620;13.796;2022-07-22T14:41:03;41.50;47.40
35206;DHT22;46555;45.620;13.796;2022-07-22T14:43:29;41.50;47.80
35206;DHT22;46555;45.620;13.796;2022-07-22T14:45:58;41.60;47.50
35206;DHT22;46555;45.620;13.796;2022-07-22T14:48:23;41.30;48.20
35206;DHT22;46555;45.620;13.796;2022-07-22T14:50:49;41.40;47.80
35206;DHT22;46555;45.620;13.796;2022-07-22T14:53:15;41.00;47.80
35206;DHT22;46555;45.620;13.796;2022-07-22T14:55:42;40.50;48.30
35206;DHT22;46555;45.620;13.796;2022-07-22T14:58:08;40.20;48.80
35206;DHT22;46555;45.620;13.796;2022-07-22T15:00:33;40.20;48.80
35206;DHT22;46555;45.620;13.796;2022-07-22T15:02:59;40.10;49.20
35206;DHT22;46555;45.620;13.796;2022-07-22T15:05:25;40.30;49.50
35206;DHT22;46555;45.620;13.796;2022-07-22T15:07:50;40.00;49.00
35206;DHT22;46555;45.620;13.796;2022-07-22T15:10:16;39.90;49.90
35206;DHT22;46555;45.620;13.796;2022-07-22T15:12:42;40.00;49.80
35206;DHT22;46555;45.620;13.796;2022-07-22T15:15:08;40.00;49.80
35206;DHT22;46555;45.620;13.796;2022-07-22T15:17:36;40.20;50.00
35206;DHT22;46555;45.620;13.796;2022-07-22T15:20:03;40.20;49.80
35206;DHT22;46555;45.620;13.796;2022-07-22T15:22:30;40.30;49.50
35206;DHT22;46555;45.620;13.796;2022-07-22T15:24:56;40.30;49.70
35206;DHT22;46555;45.620;13.796;2022-07-22T15:27:21;40.10;49.90
35206;DHT22;46555;45.620;13.796;2022-07-22T15:29:47;40.00;50.20
35206;DHT22;46555;45.620;13.796;2022-07-22T15:32:17;40.00;50.60
35206;DHT22;46555;45.620;13.796;2022-07-22T15:34:43;40.20;49.60
35206;DHT22;46555;45.620;13.796;2022-07-22T15:37:09;40.20;49.30
35206;DHT22;46555;45.620;13.796;2022-07-22T15:39:35;40.20;49.60
35206;DHT22;46555;45.620;13.796;2022-07-22T15:42:01;40.30;50.30
35206;DHT22;46555;45.620;13.796;2022-07-22T15:44:27;40.70;50.10